Time,TemperatureF,DewpointF,PressureIn,WindDirection,WindDirectionDegrees,WindSpeedMPH,WindSpeedGustMPH,Humidity,HourlyPrecipIn,Conditions,Clouds,dailyrainin,SoftwareType,DateUTC
2013-05-26 00:01:00,57.0,46.0,29.96,SSE,150,5.0,-999.0,67,-99.99,,,-99.99,,2013-05-26 07:01:00,
2013-05-26 00:11:00,55.0,46.0,29.97,SE,140,5.0,-999.0,71,-99.99,,,-99.99,,2013-05-26 07:11:00,
2013-05-26 00:21:00,55.0,46.0,29.97,SE,130,5.0,-999.0,71,-99.99,,,-99.99,,2013-05-26 07:21:00,
2013-05-26 00:31:00,55.0,46.0,29.97,SSE,150,5.0,-999.0,71,-99.99,,,-99.99,,2013-05-26 07:31:00,
2013-05-26 00:42:00,55.0,45.0,29.97,SSE,160,6.0,-999.0,66,-99.99,,,-99.99,,2013-05-26 07:42:00,
2013-05-26 00:52:00,57.0,45.0,29.97,SSE,160,8.0,-999.0,62,-99.99,,,-99.99,,2013-05-26 07:52:00,
2013-05-26 01:01:00,57.0,45.0,29.97,SSE,160,8.0,-999.0,62,-99.99,,,-99.99,,2013-05-26 08:01:00,
2013-05-26 01:11:00,55.0,46.0,29.97,SSE,150,7.0,-999.0,71,-99.99,,,-99.99,,2013-05-26 08:11:00,
2013-05-26 01:21:00,55.0,46.0,29.97,SE,140,8.0,-999.0,71,-99.99,,,-99.99,,2013-05-26 08:21:00,
2013-05-26 01:31:00,55.0,46.0,29.97,SSE,150,7.0,-999.0,71,-99.99,,,-99.99,,2013-05-26 08:31:00,
2013-05-26 01:41:00,55.0,46.0,29.97,SSE,160,9.0,-999.0,71,-99.99,,,-99.99,,2013-05-26 08:41:00,
2013-05-26 01:53:00,55.0,46.0,29.97,SSE,160,5.0,-999.0,71,-99.99,,,-99.99,,2013-05-26 08:53:00,
2013-05-26 02:01:00,55.0,46.0,29.97,SSE,160,5.0,-999.0,71,-99.99,,,-99.99,,2013-05-26 09:01:00,
2013-05-26 02:11:00,55.0,46.0,29.98,South,180,5.0,-999.0,71,-99.99,,,-99.99,,2013-05-26 09:11:00,
2013-05-26 02:21:00,54.0,45.0,29.98,South,170,3.0,-999.0,71,-99.99,,,-99.99,,2013-05-26 09:21:00,
2013-05-26 02:33:00,55.0,45.0,29.98,ENE,60,2.0,-999.0,66,-99.99,,,-99.99,,2013-05-26 09:33:00,
2013-05-26 02:42:00,52.0,46.0,29.97,North,0,0.0,-999.0,81,-99.99,,,-99.99,,2013-05-26 09:42:00,
2013-05-26 02:53:00,52.0,46.0,29.97,North,0,0.0,-999.0,81,-99.99,,,-99.99,,2013-05-26 09:53:00,
2013-05-26 03:02:00,52.0,46.0,29.97,North,0,0.0,-999.0,81,-99.99,,,-99.99,,2013-05-26 10:02:00,
2013-05-26 03:11:00,52.0,45.0,29.98,NE,50,2.0,-999.0,76,-99.99,,,-99.99,,2013-05-26 10:11:00,
2013-05-26 03:22:00,52.0,46.0,29.98,North,0,0.0,-999.0,81,-99.99,,,-99.99,,2013-05-26 10:22:00,
2013-05-26 03:32:00,52.0,45.0,29.98,North,0,0.0,-999.0,76,-99.99,,,-99.99,,2013-05-26 10:32:00,
2013-05-26 03:42:00,52.0,45.0,29.98,East,100,5.0,-999.0,76,-99.99,,,-99.99,,2013-05-26 10:42:00,
2013-05-26 03:52:00,50.0,45.0,29.98,North,0,0.0,-999.0,81,-99.99,,,-99.99,,2013-05-26 10:52:00,
2013-05-26 04:02:00,50.0,45.0,29.98,North,0,0.0,-999.0,81,-99.99,,,-99.99,,2013-05-26 11:02:00,
2013-05-26 04:11:00,50.0,45.0,29.98,ENE,70,2.0,-999.0,81,-99.99,,,-99.99,,2013-05-26 11:11:00,
2013-05-26 04:22:00,50.0,45.0,29.99,North,0,0.0,-999.0,81,-99.99,,,-99.99,,2013-05-26 11:22:00,
2013-05-26 04:32:00,52.0,45.0,29.98,North,0,0.0,-999.0,76,-99.99,,,-99.99,,2013-05-26 11:32:00,
2013-05-26 04:42:00,52.0,45.0,29.99,North,0,0.0,-999.0,76,-99.99,,,-99.99,,2013-05-26 11:42:00,
2013-05-26 04:52:00,52.0,45.0,29.99,South,180,6.0,-999.0,76,-99.99,,,-99.99,,2013-05-26 11:52:00,
2013-05-26 05:01:00,52.0,45.0,29.99,South,180,6.0,-999.0,76,-99.99,,,-99.99,,2013-05-26 12:01:00,
2013-05-26 05:11:00,54.0,45.0,29.99,South,170,5.0,-999.0,71,-99.99,,,-99.99,,2013-05-26 12:11:00,
2013-05-26 05:21:00,54.0,45.0,29.99,South,170,3.0,-999.0,71,-99.99,,,-99.99,,2013-05-26 12:21:00,
2013-05-26 05:31:00,54.0,45.0,29.99,SSE,150,2.0,-999.0,71,-99.99,,,-99.99,,2013-05-26 12:31:00,
2013-05-26 05:41:00,54.0,45.0,29.99,North,0,0.0,-999.0,71,-99.99,,,-99.99,,2013-05-26 12:41:00,
2013-05-26 05:52:00,54.0,45.0,29.99,North,0,0.0,-999.0,71,-99.99,,,-99.99,,2013-05-26 12:52:00,
2013-05-26 06:01:00,54.0,45.0,29.99,North,0,0.0,-999.0,71,-99.99,,,-99.99,,2013-05-26 13:01:00,
2013-05-26 06:11:00,54.0,46.0,30.00,SSE,150,3.0,-999.0,76,-99.99,,,-99.99,,2013-05-26 13:11:00,
2013-05-26 06:21:00,54.0,46.0,30.00,North,0,0.0,-999.0,76,-99.99,,,-99.99,,2013-05-26 13:21:00,
2013-05-26 06:31:00,55.0,46.0,30.01,North,0,0.0,-999.0,71,-99.99,,,-99.99,,2013-05-26 13:31:00,
2013-05-26 06:41:00,55.0,46.0,30.01,North,0,0.0,-999.0,71,-99.99,,,-99.99,,2013-05-26 13:41:00,
2013-05-26 06:52:00,55.0,46.0,30.01,North,0,0.0,-999.0,71,-99.99,,,-99.99,,2013-05-26 13:52:00,
2013-05-26 07:01:00,55.0,46.0,30.01,North,0,0.0,-999.0,71,-99.99,,,-99.99,,2013-05-26 14:01:00,
2013-05-26 07:11:00,55.0,46.0,30.02,North,0,0.0,-999.0,71,-99.99,,,-99.99,,2013-05-26 14:11:00,
2013-05-26 07:21:00,55.0,46.0,30.02,North,0,0.0,-999.0,71,-99.99,,,-99.99,,2013-05-26 14:21:00,
2013-05-26 07:31:00,57.0,46.0,30.03,WNW,290,2.0,-999.0,67,-99.99,,,-99.99,,2013-05-26 14:31:00,
2013-05-26 07:41:00,57.0,46.0,30.03,North,0,0.0,-999.0,67,-99.99,,,-99.99,,2013-05-26 14:41:00,
2013-05-26 07:52:00,57.0,46.0,30.03,North,0,0.0,-999.0,67,-99.99,,,-99.99,,2013-05-26 14:52:00,
2013-05-26 08:01:00,57.0,46.0,30.03,North,0,0.0,-999.0,67,-99.99,,,-99.99,,2013-05-26 15:01:00,
2013-05-26 08:11:00,61.0,48.0,30.03,WNW,300,3.0,-999.0,63,-99.99,,,-99.99,,2013-05-26 15:11:00,
2013-05-26 08:22:00,61.0,48.0,30.04,West,280,5.0,-999.0,63,-99.99,,,-99.99,,2013-05-26 15:22:00,
2013-05-26 08:33:00,63.0,48.0,30.04,NW,320,3.0,-999.0,59,-99.99,,,-99.99,,2013-05-26 15:33:00,
2013-05-26 08:43:00,63.0,48.0,30.04,NW,310,2.0,-999.0,59,-99.99,,,-99.99,,2013-05-26 15:43:00,
2013-05-26 08:53:00,63.0,48.0,30.05,NW,320,5.0,-999.0,59,-99.99,,,-99.99,,2013-05-26 15:53:00,
2013-05-26 09:03:00,63.0,48.0,30.05,NW,320,5.0,-999.0,59,-99.99,,,-99.99,,2013-05-26 16:03:00,
2013-05-26 09:12:00,63.0,48.0,30.05,North,360,3.0,-999.0,59,-99.99,,,-99.99,,2013-05-26 16:12:00,
2013-05-26 09:23:00,64.0,48.0,30.05,NNW,340,6.0,-999.0,55,-99.99,,,-99.99,,2013-05-26 16:23:00,
2013-05-26 09:32:00,64.0,48.0,30.06,WNW,290,5.0,-999.0,55,-99.99,,,-99.99,,2013-05-26 16:32:00,
2013-05-26 09:42:00,64.0,48.0,30.06,NNW,330,5.0,-999.0,55,-99.99,,,-99.99,,2013-05-26 16:42:00,
2013-05-26 09:52:00,64.0,48.0,30.06,WNW,290,3.0,-999.0,55,-99.99,,,-99.99,,2013-05-26 16:52:00,
2013-05-26 10:02:00,64.0,48.0,30.06,WNW,290,3.0,-999.0,55,-99.99,,,-99.99,,2013-05-26 17:02:00,
2013-05-26 10:11:00,66.0,48.0,30.06,North,0,0.0,-999.0,52,-99.99,,,-99.99,,2013-05-26 17:11:00,
2013-05-26 10:22:00,66.0,48.0,30.06,North,0,0.0,-999.0,52,-99.99,,,-99.99,,2013-05-26 17:22:00,
2013-05-26 10:32:00,68.0,48.0,30.06,North,0,0.0,-999.0,49,-99.99,,,-99.99,,2013-05-26 17:32:00,
2013-05-26 10:42:00,68.0,48.0,30.06,North,0,0.0,-999.0,49,-99.99,,,-99.99,,2013-05-26 17:42:00,
2013-05-26 10:52:00,70.0,46.0,30.06,North,0,0.0,-999.0,43,-99.99,,,-99.99,,2013-05-26 17:52:00,
2013-05-26 11:01:00,70.0,46.0,30.06,North,0,0.0,-999.0,43,-99.99,,,-99.99,,2013-05-26 18:01:00,
2013-05-26 11:11:00,70.0,46.0,30.06,East,100,1.0,-999.0,43,-99.99,,,-99.99,,2013-05-26 18:11:00,
2013-05-26 11:21:00,72.0,46.0,30.06,ESE,110,2.0,-999.0,40,-99.99,,,-99.99,,2013-05-26 18:21:00,
2013-05-26 11:31:00,72.0,46.0,30.06,North,0,0.0,-999.0,40,-99.99,,,-99.99,,2013-05-26 18:31:00,
2013-05-26 11:41:00,73.0,46.0,30.06,North,0,0.0,-999.0,38,-99.99,,,-99.99,,2013-05-26 18:41:00,
2013-05-26 11:52:00,73.0,46.0,30.06,South,180,3.0,-999.0,38,-99.99,,,-99.99,,2013-05-26 18:52:00,
2013-05-26 12:01:00,73.0,46.0,30.06,South,180,3.0,-999.0,38,-99.99,,,-99.99,,2013-05-26 19:01:00,
2013-05-26 12:11:00,73.0,46.0,30.05,SSW,200,7.0,-999.0,38,-99.99,,,-99.99,,2013-05-26 19:11:00,
2013-05-26 12:21:00,73.0,46.0,30.05,SSE,150,1.0,-999.0,38,-99.99,,,-99.99,,2013-05-26 19:21:00,
2013-05-26 12:31:00,75.0,46.0,30.05,South,180,10.0,-999.0,35,-99.99,,,-99.99,,2013-05-26 19:31:00,
2013-05-26 12:41:00,75.0,46.0,30.05,South,170,7.0,-999.0,35,-99.99,,,-99.99,,2013-05-26 19:41:00,
2013-05-26 12:52:00,75.0,46.0,30.05,ESE,120,2.0,-999.0,35,-99.99,,,-99.99,,2013-05-26 19:52:00,
2013-05-26 13:01:00,75.0,46.0,30.05,ESE,120,2.0,-999.0,35,-99.99,,,-99.99,,2013-05-26 20:01:00,
2013-05-26 13:11:00,75.0,46.0,30.04,NNE,20,3.0,-999.0,35,-99.99,,,-99.99,,2013-05-26 20:11:00,
2013-05-26 13:21:00,75.0,46.0,30.04,South,190,7.0,-999.0,35,-99.99,,,-99.99,,2013-05-26 20:21:00,
2013-05-26 13:32:00,77.0,46.0,30.04,ESE,120,7.0,-999.0,33,-99.99,,,-99.99,,2013-05-26 20:32:00,
2013-05-26 13:41:00,75.0,46.0,30.04,ESE,120,6.0,-999.0,35,-99.99,,,-99.99,,2013-05-26 20:41:00,
2013-05-26 13:52:00,75.0,46.0,30.03,SE,130,3.0,-999.0,35,-99.99,,,-99.99,,2013-05-26 20:52:00,
2013-05-26 14:01:00,75.0,46.0,30.03,SE,130,3.0,-999.0,35,-99.99,,,-99.99,,2013-05-26 21:01:00,
2013-05-26 14:11:00,79.0,46.0,30.03,South,170,7.0,-999.0,31,-99.99,,,-99.99,,2013-05-26 21:11:00,
2013-05-26 14:22:00,79.0,46.0,30.02,East,100,7.0,-999.0,31,-99.99,,,-99.99,,2013-05-26 21:22:00,
2013-05-26 14:33:00,79.0,46.0,30.02,South,190,3.0,-999.0,31,-99.99,,,-99.99,,2013-05-26 21:33:00,
2013-05-26 14:43:00,79.0,46.0,30.02,SSE,150,7.0,-999.0,31,-99.99,,,-99.99,,2013-05-26 21:43:00,
2013-05-26 14:53:00,79.0,46.0,30.02,SSE,150,6.0,-999.0,31,-99.99,,,-99.99,,2013-05-26 21:53:00,
2013-05-26 15:02:00,79.0,46.0,30.02,SSE,150,6.0,-999.0,31,-99.99,,,-99.99,,2013-05-26 22:02:00,
2013-05-26 15:12:00,79.0,45.0,30.02,ESE,110,3.0,-999.0,29,-99.99,,,-99.99,,2013-05-26 22:12:00,
2013-05-26 15:22:00,79.0,45.0,30.01,North,0,0.0,-999.0,29,-99.99,,,-99.99,,2013-05-26 22:22:00,
2013-05-26 15:32:00,79.0,45.0,30.01,ESE,110,5.0,-999.0,29,-99.99,,,-99.99,,2013-05-26 22:32:00,
2013-05-26 15:42:00,79.0,45.0,30.00,SE,140,12.0,-999.0,29,-99.99,,,-99.99,,2013-05-26 22:42:00,
2013-05-26 15:53:00,79.0,45.0,30.00,SW,220,10.0,-999.0,29,-99.99,,,-99.99,,2013-05-26 22:53:00,
2013-05-26 16:01:00,79.0,45.0,30.00,SW,220,10.0,-999.0,29,-99.99,,,-99.99,,2013-05-26 23:01:00,
2013-05-26 16:11:00,79.0,45.0,30.00,South,170,5.0,-999.0,29,-99.99,,,-99.99,,2013-05-26 23:11:00,
2013-05-26 16:22:00,79.0,46.0,30.00,South,170,6.0,-999.0,31,-99.99,,,-99.99,,2013-05-26 23:22:00,
2013-05-26 16:32:00,79.0,45.0,29.99,ENE,70,7.0,-999.0,29,-99.99,,,-99.99,,2013-05-26 23:32:00,
2013-05-26 16:42:00,81.0,46.0,29.99,North,0,0.0,-999.0,30,-99.99,,,-99.99,,2013-05-26 23:42:00,
2013-05-26 16:52:00,81.0,45.0,29.99,ESE,120,5.0,-999.0,28,-99.99,,,-99.99,,2013-05-26 23:52:00,
2013-05-26 17:01:00,81.0,45.0,29.99,ESE,120,5.0,-999.0,28,-99.99,,,-99.99,,2013-05-27 00:01:00,
2013-05-26 17:11:00,81.0,46.0,29.99,SSW,210,8.0,21.0,30,-99.99,,,-99.99,,2013-05-27 00:11:00,
2013-05-26 17:21:00,81.0,45.0,29.99,West,260,15.0,17.0,28,-99.99,,,-99.99,,2013-05-27 00:21:00,
2013-05-26 17:31:00,81.0,45.0,29.98,WSW,250,9.0,17.0,28,-99.99,,,-99.99,,2013-05-27 00:31:00,
2013-05-26 17:41:00,81.0,45.0,29.98,West,260,14.0,-999.0,28,-99.99,,,-99.99,,2013-05-27 00:41:00,
2013-05-26 17:52:00,81.0,45.0,29.98,West,260,17.0,-999.0,28,-99.99,,,-99.99,,2013-05-27 00:52:00,
2013-05-26 18:01:00,81.0,45.0,29.98,West,260,17.0,-999.0,28,-99.99,,,-99.99,,2013-05-27 01:01:00,
2013-05-26 18:11:00,81.0,45.0,29.98,West,260,13.0,-999.0,28,-99.99,,,-99.99,,2013-05-27 01:11:00,
2013-05-26 18:21:00,79.0,45.0,29.98,WSW,240,14.0,-999.0,29,-99.99,,,-99.99,,2013-05-27 01:21:00,
2013-05-26 18:31:00,79.0,45.0,29.98,WSW,250,14.0,-999.0,29,-99.99,,,-99.99,,2013-05-27 01:31:00,
2013-05-26 18:42:00,79.0,43.0,29.98,WSW,240,16.0,-999.0,27,-99.99,,,-99.99,,2013-05-27 01:42:00,
2013-05-26 18:52:00,79.0,43.0,29.98,WSW,240,14.0,-999.0,27,-99.99,,,-99.99,,2013-05-27 01:52:00,
2013-05-26 19:01:00,79.0,43.0,29.98,WSW,240,14.0,-999.0,27,-99.99,,,-99.99,,2013-05-27 02:01:00,
2013-05-26 19:11:00,77.0,45.0,29.99,SW,220,14.0,-999.0,31,-99.99,,,-99.99,,2013-05-27 02:11:00,
2013-05-26 19:21:00,75.0,46.0,29.99,WSW,240,13.0,17.0,35,-99.99,,,-99.99,,2013-05-27 02:21:00,
2013-05-26 19:31:00,75.0,46.0,29.99,SW,220,9.0,-999.0,35,-99.99,,,-99.99,,2013-05-27 02:31:00,
2013-05-26 19:42:00,73.0,46.0,29.99,SW,220,12.0,-999.0,38,-99.99,,,-99.99,,2013-05-27 02:42:00,
2013-05-26 19:52:00,73.0,46.0,29.99,WSW,240,12.0,-999.0,38,-99.99,,,-99.99,,2013-05-27 02:52:00,
2013-05-26 20:02:00,73.0,46.0,29.99,WSW,240,12.0,-999.0,38,-99.99,,,-99.99,,2013-05-27 03:02:00,
2013-05-26 20:11:00,73.0,46.0,30.00,SW,220,7.0,-999.0,38,-99.99,,,-99.99,,2013-05-27 03:11:00,
2013-05-26 20:21:00,72.0,46.0,30.01,South,190,7.0,-999.0,40,-99.99,,,-99.99,,2013-05-27 03:21:00,
2013-05-26 20:32:00,72.0,46.0,30.01,SSW,210,9.0,-999.0,40,-99.99,,,-99.99,,2013-05-27 03:32:00,
2013-05-26 20:42:00,72.0,46.0,30.01,South,190,10.0,-999.0,40,-99.99,,,-99.99,,2013-05-27 03:42:00,
2013-05-26 20:53:00,70.0,46.0,30.01,SSW,200,7.0,-999.0,43,-99.99,,,-99.99,,2013-05-27 03:53:00,
2013-05-26 21:02:00,70.0,46.0,30.01,SSW,200,7.0,-999.0,43,-99.99,,,-99.99,,2013-05-27 04:02:00,
2013-05-26 21:12:00,70.0,46.0,30.02,South,180,6.0,-999.0,43,-99.99,,,-99.99,,2013-05-27 04:12:00,
2013-05-26 21:22:00,68.0,46.0,30.02,SSW,200,9.0,-999.0,45,-99.99,,,-99.99,,2013-05-27 04:22:00,
2013-05-26 21:33:00,68.0,46.0,30.02,SSW,200,8.0,-999.0,45,-99.99,,,-99.99,,2013-05-27 04:33:00,
2013-05-26 21:42:00,68.0,46.0,30.03,South,190,7.0,-999.0,45,-99.99,,,-99.99,,2013-05-27 04:42:00,
2013-05-26 21:52:00,66.0,46.0,30.03,SSW,210,8.0,-999.0,48,-99.99,,,-99.99,,2013-05-27 04:52:00,
2013-05-26 22:02:00,66.0,46.0,30.03,SSW,210,8.0,-999.0,48,-99.99,,,-99.99,,2013-05-27 05:02:00,
2013-05-26 22:12:00,66.0,46.0,30.04,South,170,5.0,-999.0,48,-99.99,,,-99.99,,2013-05-27 05:12:00,
2013-05-26 22:21:00,63.0,48.0,30.05,South,170,7.0,-999.0,59,-99.99,,,-99.99,,2013-05-27 05:21:00,
2013-05-26 22:32:00,63.0,48.0,30.05,South,170,6.0,-999.0,59,-99.99,,,-99.99,,2013-05-27 05:32:00,
2013-05-26 22:41:00,63.0,46.0,30.05,South,170,7.0,-999.0,55,-99.99,,,-99.99,,2013-05-27 05:41:00,
2013-05-26 22:52:00,63.0,46.0,30.05,SSE,160,7.0,-999.0,55,-99.99,,,-99.99,,2013-05-27 05:52:00,
2013-05-26 23:01:00,63.0,46.0,30.05,SSE,160,7.0,-999.0,55,-99.99,,,-99.99,,2013-05-27 06:01:00,
2013-05-26 23:11:00,61.0,46.0,30.05,SE,140,7.0,-999.0,59,-99.99,,,-99.99,,2013-05-27 06:11:00,
2013-05-26 23:21:00,59.0,46.0,30.05,SSE,150,6.0,-999.0,62,-99.99,,,-99.99,,2013-05-27 06:21:00,
2013-05-26 23:31:00,59.0,46.0,30.05,South,170,8.0,-999.0,62,-99.99,,,-99.99,,2013-05-27 06:31:00,
2013-05-26 23:41:00,59.0,46.0,30.05,South,170,7.0,-999.0,62,-99.99,,,-99.99,,2013-05-27 06:41:00,
2013-05-26 23:52:00,59.0,46.0,30.05,South,180,9.0,-999.0,62,-99.99,,,-99.99,,2013-05-27 06:52:00,